createdAt,value
2018-12-04T00:00:08.729Z,99.90
2018-12-04T00:02:36.356Z,99.90
2018-12-04T00:05:05.407Z,99.90
2018-12-04T00:07:33.469Z,99.90
2018-12-04T00:10:02.596Z,99.90
2018-12-04T00:12:30.106Z,99.90
2018-12-04T00:14:57.610Z,99.90
2018-12-04T00:17:26.710Z,99.90
2018-12-04T00:19:54.220Z,99.90
2018-12-04T00:22:22.120Z,99.90
2018-12-04T00:24:50.316Z,99.90
2018-12-04T00:27:18.421Z,99.90
2018-12-04T00:29:46.474Z,99.90
2018-12-04T00:32:14.755Z,99.90
2018-12-04T00:34:42.265Z,99.90
2018-12-04T00:37:09.749Z,99.90
2018-12-04T00:39:37.292Z,99.90
2018-12-04T00:42:05.986Z,99.90
2018-12-04T00:44:33.481Z,99.90
2018-12-04T00:47:02.084Z,99.90
2018-12-04T00:49:31.336Z,99.90
2018-12-04T00:51:59.678Z,99.90
2018-12-04T00:54:28.058Z,99.90
2018-12-04T00:56:55.555Z,99.90
2018-12-04T00:59:23.074Z,99.90
2018-12-04T01:01:52.204Z,99.90
2018-12-04T01:04:20.462Z,99.90
2018-12-04T01:06:48.539Z,99.90
2018-12-04T01:09:17.400Z,99.90
2018-12-04T01:11:44.950Z,99.90
2018-12-04T01:14:12.422Z,99.90
2018-12-04T01:16:39.974Z,99.90
2018-12-04T01:19:07.469Z,99.90
2018-12-04T01:21:35.099Z,99.90
2018-12-04T01:24:03.193Z,99.90
2018-12-04T01:26:31.138Z,99.90
2018-12-04T01:29:00.410Z,99.90
2018-12-04T01:31:28.670Z,99.90
2018-12-04T01:33:56.198Z,99.90
2018-12-04T01:36:23.712Z,99.90
2018-12-04T01:38:51.191Z,99.90
2018-12-04T01:41:19.491Z,99.90
2018-12-04T01:43:48.149Z,99.90
2018-12-04T01:46:16.333Z,99.90
2018-12-04T01:48:44.618Z,99.90
2018-12-04T01:51:13.652Z,99.90
2018-12-04T01:53:41.794Z,99.90
2018-12-04T01:56:09.284Z,99.90
2018-12-04T01:58:36.766Z,99.90
2018-12-04T02:01:04.986Z,99.90
2018-12-04T02:03:32.485Z,99.90
2018-12-04T02:06:00.470Z,99.90
2018-12-04T02:08:28.429Z,99.90
2018-12-04T02:10:55.969Z,99.90
2018-12-04T02:13:23.459Z,99.90
2018-12-04T02:15:51.607Z,99.90
2018-12-04T02:18:19.141Z,99.90
2018-12-04T02:20:46.770Z,99.90
2018-12-04T02:23:14.339Z,99.90
2018-12-04T02:25:42.275Z,99.90
2018-12-04T02:28:10.456Z,99.90
2018-12-04T02:30:37.947Z,99.90
2018-12-04T02:33:05.438Z,99.90
2018-12-04T02:35:33.002Z,99.90
2018-12-04T02:38:00.512Z,99.90
2018-12-04T02:40:28.094Z,99.90
2018-12-04T02:42:56.144Z,99.90
2018-12-04T02:45:23.662Z,99.90
2018-12-04T02:47:51.665Z,99.90
2018-12-04T02:50:20.334Z,99.90
2018-12-04T02:52:47.834Z,99.90
2018-12-04T02:55:15.364Z,99.90
2018-12-04T02:57:42.878Z,99.90
2018-12-04T03:00:10.823Z,99.90
2018-12-04T03:02:38.409Z,99.90
2018-12-04T03:05:06.894Z,99.90
2018-12-04T03:07:35.068Z,99.90
2018-12-04T03:10:03.349Z,99.90
2018-12-04T03:12:31.518Z,99.90
2018-12-04T03:14:59.058Z,99.90
2018-12-04T03:17:26.534Z,99.90
2018-12-04T03:19:54.406Z,99.90
2018-12-04T03:22:21.988Z,99.90
2018-12-04T03:24:50.149Z,99.90
2018-12-04T03:27:17.650Z,99.90
2018-12-04T03:29:45.157Z,99.90
2018-12-04T03:32:13.181Z,99.90
2018-12-04T03:34:40.693Z,99.90
2018-12-04T03:37:08.210Z,99.90
2018-12-04T03:39:35.887Z,99.90
2018-12-04T03:42:05.781Z,99.90
2018-12-04T03:44:34.677Z,99.90
2018-12-04T03:47:03.060Z,99.90
2018-12-04T03:49:32.090Z,99.90
2018-12-04T03:52:00.001Z,99.90
2018-12-04T03:54:28.417Z,99.90
2018-12-04T03:56:56.602Z,99.90
2018-12-04T03:59:24.210Z,99.90
2018-12-04T04:01:52.534Z,99.90
2018-12-04T04:04:20.031Z,99.90
2018-12-04T04:06:48.042Z,99.90
2018-12-04T04:09:16.153Z,99.90
2018-12-04T04:11:43.670Z,99.90
2018-12-04T04:14:11.230Z,99.90
2018-12-04T04:16:38.781Z,99.90
2018-12-04T04:19:06.274Z,99.90
2018-12-04T04:21:35.314Z,99.90
2018-12-04T04:24:03.907Z,99.90
2018-12-04T04:26:31.514Z,99.90
2018-12-04T04:28:59.036Z,99.90
2018-12-04T04:31:26.578Z,99.90
2018-12-04T04:33:54.590Z,99.90
2018-12-04T04:36:22.087Z,99.90
2018-12-04T04:38:49.605Z,99.90
2018-12-04T04:41:17.367Z,99.90
2018-12-04T04:43:45.236Z,99.90
2018-12-04T04:46:14.509Z,99.90
2018-12-04T04:48:42.590Z,99.90
2018-12-04T04:51:10.797Z,99.90
2018-12-04T04:53:38.289Z,99.90
2018-12-04T04:56:06.649Z,99.90
2018-12-04T04:58:34.914Z,99.90
2018-12-04T05:01:03.123Z,99.90
2018-12-04T05:03:30.603Z,99.90
2018-12-04T05:05:58.638Z,99.90
2018-12-04T05:08:26.831Z,99.90
2018-12-04T05:10:54.423Z,99.90
2018-12-04T05:13:21.922Z,99.90
2018-12-04T05:15:49.479Z,99.90
2018-12-04T05:18:18.406Z,99.90
2018-12-04T05:20:45.948Z,99.90
2018-12-04T05:23:13.444Z,99.90
2018-12-04T05:25:41.995Z,99.90
2018-12-04T05:28:09.634Z,99.90
2018-12-04T05:30:37.142Z,99.90
2018-12-04T05:33:06.346Z,99.90
2018-12-04T05:35:33.847Z,99.90
2018-12-04T05:38:01.338Z,99.90
2018-12-04T05:40:30.294Z,99.90
2018-12-04T05:42:58.796Z,99.90
2018-12-04T05:45:26.315Z,99.90
2018-12-04T05:47:54.428Z,99.90
2018-12-04T05:50:22.479Z,99.90
2018-12-04T05:53:02.181Z,99.90
2018-12-04T05:55:30.398Z,99.90
2018-12-04T05:57:58.883Z,99.90
2018-12-04T06:00:27.053Z,99.90
2018-12-04T06:02:55.465Z,99.90
2018-12-04T06:05:24.348Z,99.90
2018-12-04T06:07:52.522Z,99.90
2018-12-04T06:10:20.870Z,99.90
2018-12-04T06:12:48.682Z,99.90
2018-12-04T06:15:17.689Z,99.90
2018-12-04T06:17:45.709Z,99.90
2018-12-04T06:20:13.922Z,99.90
2018-12-04T06:22:42.097Z,99.90
2018-12-04T06:25:10.134Z,99.90
2018-12-04T06:27:38.305Z,99.90
2018-12-04T06:30:06.825Z,99.90
2018-12-04T06:32:34.617Z,99.90
2018-12-04T06:35:02.372Z,99.90
2018-12-04T06:37:30.917Z,99.90
2018-12-04T06:39:59.970Z,99.90
2018-12-04T06:42:28.085Z,99.90
2018-12-04T06:44:56.172Z,99.90
2018-12-04T06:47:24.381Z,99.90
2018-12-04T06:49:52.431Z,99.90
2018-12-04T06:52:21.552Z,99.90
2018-12-04T06:54:49.506Z,99.90
2018-12-04T06:57:18.027Z,99.90
2018-12-04T06:59:46.015Z,99.90
2018-12-04T07:02:14.205Z,99.90
2018-12-04T07:04:42.253Z,99.90
2018-12-04T07:07:10.813Z,99.90
2018-12-04T07:09:40.386Z,99.90
2018-12-04T07:12:07.888Z,99.90
2018-12-04T07:14:36.415Z,99.90
2018-12-04T07:17:03.922Z,99.90
2018-12-04T07:19:31.981Z,99.90
2018-12-04T07:22:00.069Z,99.90
2018-12-04T07:24:28.020Z,99.90
2018-12-04T07:26:55.617Z,99.90
2018-12-04T07:29:23.141Z,99.90
2018-12-04T07:31:50.876Z,99.90
2018-12-04T07:34:18.402Z,99.90
2018-12-04T07:36:46.365Z,99.90
2018-12-04T07:39:14.666Z,99.90
2018-12-04T07:41:44.514Z,99.90
2018-12-04T07:44:13.343Z,99.90
2018-12-04T07:46:42.125Z,99.90
2018-12-04T07:49:10.314Z,99.90
2018-12-04T07:51:38.277Z,99.90
2018-12-04T07:54:06.173Z,99.90
2018-12-04T07:56:33.682Z,99.90
2018-12-04T07:59:02.162Z,99.90
2018-12-04T08:01:30.274Z,99.90
2018-12-04T08:03:58.332Z,99.90
2018-12-04T08:06:27.156Z,99.90
2018-12-04T08:08:55.194Z,99.90
2018-12-04T08:11:24.823Z,99.90
2018-12-04T08:13:52.412Z,99.90
2018-12-04T08:16:19.988Z,99.90
2018-12-04T08:18:47.718Z,99.90
2018-12-04T08:21:15.309Z,99.90
2018-12-04T08:23:42.889Z,99.90
2018-12-04T08:26:10.399Z,99.90
2018-12-04T08:28:37.998Z,99.90
2018-12-04T08:31:05.563Z,99.90
2018-12-04T08:33:34.132Z,99.90
2018-12-04T08:36:01.681Z,99.90
2018-12-04T08:38:29.335Z,99.90
2018-12-04T08:40:56.862Z,99.90
2018-12-04T08:43:24.732Z,99.90
2018-12-04T08:45:52.977Z,99.90
2018-12-04T08:48:20.974Z,99.90
2018-12-04T08:50:48.937Z,99.90
2018-12-04T08:53:16.432Z,99.90
2018-12-04T08:55:43.921Z,99.90
2018-12-04T08:58:11.609Z,99.90
2018-12-04T09:00:40.672Z,99.90
2018-12-04T09:03:08.162Z,99.90
2018-12-04T09:05:36.153Z,99.90
2018-12-04T09:08:04.149Z,99.90
2018-12-04T09:10:32.835Z,99.90
2018-12-04T09:13:00.648Z,99.90
2018-12-04T09:15:28.188Z,99.90
2018-12-04T09:17:55.684Z,99.90
2018-12-04T09:20:23.766Z,99.90
2018-12-04T09:22:52.012Z,99.90
2018-12-04T09:25:20.252Z,99.90
2018-12-04T09:27:48.327Z,99.90
2018-12-04T09:30:15.963Z,99.90
2018-12-04T09:32:44.993Z,99.90
2018-12-04T09:35:13.067Z,99.90
2018-12-04T09:37:40.958Z,99.90
2018-12-04T09:40:09.201Z,88.90
2018-12-04T09:42:37.384Z,97.20
2018-12-04T09:45:07.220Z,89.90
2018-12-04T09:47:35.595Z,92.90
2018-12-04T09:50:05.117Z,90.10
2018-12-04T09:52:33.432Z,82.50
2018-12-04T09:55:01.531Z,87.70
2018-12-04T09:57:29.747Z,83.70
2018-12-04T09:59:57.741Z,88.70
2018-12-04T10:02:26.091Z,90.70
2018-12-04T10:04:53.572Z,81.30
2018-12-04T10:07:21.934Z,79.00
2018-12-04T10:09:49.432Z,82.50
2018-12-04T10:12:16.999Z,83.00
2018-12-04T10:14:46.680Z,82.40
2018-12-04T10:17:14.869Z,81.60
2018-12-04T10:19:42.355Z,81.30
2018-12-04T10:22:10.675Z,81.80
2018-12-04T10:24:38.421Z,82.00
2018-12-04T10:27:05.973Z,76.70
2018-12-04T10:29:33.930Z,78.70
2018-12-04T10:32:01.926Z,80.10
2018-12-04T10:34:30.205Z,77.70
2018-12-04T10:36:57.746Z,76.70
2018-12-04T10:39:27.901Z,77.30
2018-12-04T10:41:56.102Z,76.30
2018-12-04T10:44:23.985Z,79.80
2018-12-04T10:46:52.748Z,78.90
2018-12-04T10:49:21.101Z,78.90
2018-12-04T10:51:49.165Z,75.80
2018-12-04T10:54:16.674Z,72.00
2018-12-04T10:56:44.213Z,74.60
2018-12-04T10:59:11.714Z,74.40
2018-12-04T11:01:46.682Z,74.80
2018-12-04T11:04:14.693Z,74.10
2018-12-04T11:06:43.506Z,76.10
2018-12-04T11:09:11.107Z,72.60
2018-12-04T11:11:38.658Z,73.30
2018-12-04T11:14:06.159Z,73.60
2018-12-04T11:16:33.962Z,73.90
2018-12-04T11:19:01.512Z,73.70
2018-12-04T11:21:29.133Z,73.80
2018-12-04T11:23:57.898Z,76.40
2018-12-04T11:26:26.056Z,78.70
2018-12-04T11:28:53.547Z,80.50
2018-12-04T11:31:21.098Z,81.70
2018-12-04T11:33:48.927Z,83.90
2018-12-04T11:36:16.448Z,86.60
2018-12-04T11:38:45.156Z,88.40
2018-12-04T11:41:13.658Z,90.00
2018-12-04T11:43:41.619Z,89.40
2018-12-04T11:46:09.150Z,94.50
2018-12-04T11:48:37.245Z,99.80
2018-12-04T11:51:05.548Z,99.90
2018-12-04T11:53:33.036Z,99.90
2018-12-04T11:56:01.754Z,99.90
2018-12-04T11:58:29.628Z,99.90
2018-12-04T12:00:57.859Z,99.90
2018-12-04T12:03:26.161Z,99.90
2018-12-04T12:05:53.657Z,99.90
2018-12-04T12:08:21.318Z,99.90
2018-12-04T12:10:49.022Z,99.90
2018-12-04T12:13:16.516Z,99.90
2018-12-04T12:15:44.644Z,99.90
2018-12-04T12:18:12.163Z,99.90
2018-12-04T12:20:39.654Z,99.90
2018-12-04T12:23:07.270Z,99.90
2018-12-04T12:25:35.113Z,99.90
2018-12-04T12:28:04.030Z,99.90
2018-12-04T12:30:31.516Z,99.90
2018-12-04T12:32:59.000Z,99.90
2018-12-04T12:35:27.309Z,99.90
2018-12-04T12:37:54.849Z,99.90
2018-12-04T12:40:22.988Z,99.90
2018-12-04T12:42:51.049Z,99.90
2018-12-04T12:45:18.637Z,99.90
2018-12-04T12:47:46.798Z,99.90
2018-12-04T12:50:14.978Z,99.90
2018-12-04T12:52:43.039Z,99.90
2018-12-04T12:55:11.022Z,99.90
2018-12-04T12:57:38.502Z,99.90
2018-12-04T13:00:08.336Z,99.90
2018-12-04T13:02:36.796Z,99.90
2018-12-04T13:05:04.549Z,99.90
2018-12-04T13:07:32.067Z,99.90
2018-12-04T13:09:59.794Z,99.90
2018-12-04T13:12:28.276Z,99.90
2018-12-04T13:14:55.764Z,99.90
2018-12-04T13:17:23.281Z,99.90
2018-12-04T13:19:50.789Z,99.90
2018-12-04T13:22:19.053Z,99.90
2018-12-04T13:24:46.990Z,99.90
2018-12-04T13:27:15.212Z,99.90
2018-12-04T13:29:42.742Z,99.90
2018-12-04T13:32:10.241Z,99.90
2018-12-04T13:34:38.732Z,99.90
2018-12-04T13:37:06.817Z,99.90
2018-12-04T13:39:35.000Z,99.90
2018-12-04T13:42:03.121Z,99.90
2018-12-04T13:44:30.668Z,97.30
2018-12-04T13:46:59.582Z,99.90
2018-12-04T13:49:27.960Z,99.90
2018-12-04T13:51:56.393Z,99.90
2018-12-04T13:54:24.235Z,99.90
2018-12-04T13:56:53.278Z,99.90
2018-12-04T13:59:21.555Z,99.90
2018-12-04T14:01:49.810Z,99.90
2018-12-04T14:04:17.374Z,99.90
2018-12-04T14:06:45.187Z,99.90
2018-12-04T14:09:13.236Z,99.90
2018-12-04T14:11:41.302Z,95.80
2018-12-04T14:14:09.798Z,96.60
2018-12-04T14:16:37.763Z,99.90
2018-12-04T14:19:05.862Z,99.90
2018-12-04T14:21:33.353Z,99.90
2018-12-04T14:24:01.590Z,99.90
2018-12-04T14:26:29.314Z,99.90
2018-12-04T14:28:56.807Z,99.90
2018-12-04T14:31:24.835Z,99.90
2018-12-04T14:33:52.319Z,99.90
2018-12-04T14:36:20.659Z,99.90
2018-12-04T14:38:48.331Z,99.90
2018-12-04T14:41:15.857Z,99.90
2018-12-04T14:43:44.668Z,99.90
2018-12-04T14:46:12.317Z,99.90
2018-12-04T14:48:40.700Z,99.90
2018-12-04T14:51:09.080Z,99.90
2018-12-04T14:53:38.094Z,99.90
2018-12-04T14:56:06.306Z,99.90
2018-12-04T14:58:33.925Z,99.90
2018-12-04T15:01:02.436Z,99.90
2018-12-04T15:03:31.113Z,99.90
2018-12-04T15:05:59.077Z,99.90
2018-12-04T15:08:27.097Z,99.90
2018-12-04T15:10:54.698Z,99.90
2018-12-04T15:13:23.333Z,99.90
2018-12-04T15:15:50.925Z,99.90
2018-12-04T15:18:19.141Z,99.90
2018-12-04T15:20:46.689Z,99.90
2018-12-04T15:23:14.325Z,99.90
2018-12-04T15:25:42.633Z,99.90
2018-12-04T15:28:11.079Z,99.90
2018-12-04T15:30:39.206Z,99.90
2018-12-04T15:33:07.549Z,99.90
2018-12-04T15:35:35.841Z,99.90
2018-12-04T15:38:04.159Z,99.90
2018-12-04T15:40:31.788Z,99.90
2018-12-04T15:43:00.234Z,99.90
2018-12-04T15:45:27.806Z,99.90
2018-12-04T15:47:56.446Z,99.90
2018-12-04T15:50:24.540Z,99.90
2018-12-04T15:52:53.082Z,99.90
2018-12-04T15:55:20.616Z,99.90
2018-12-04T15:57:48.570Z,99.90
2018-12-04T16:00:16.079Z,99.90
2018-12-04T16:02:44.092Z,99.90
2018-12-04T16:05:11.719Z,99.90
2018-12-04T16:07:39.265Z,99.90
2018-12-04T16:10:11.037Z,99.90
2018-12-04T16:12:38.578Z,99.90
2018-12-04T16:15:07.541Z,99.90
2018-12-04T16:17:35.741Z,99.90
2018-12-04T16:20:04.541Z,99.90
2018-12-04T16:22:32.223Z,99.90
2018-12-04T16:24:59.778Z,99.90
2018-12-04T16:27:28.230Z,99.90
2018-12-04T16:29:56.837Z,99.90
2018-12-04T16:32:24.331Z,99.90
2018-12-04T16:34:51.845Z,99.90
2018-12-04T16:37:19.381Z,99.90
2018-12-04T16:39:47.503Z,99.90
2018-12-04T16:42:15.889Z,99.90
2018-12-04T16:44:43.408Z,99.90
2018-12-04T16:47:11.325Z,99.90
2018-12-04T16:49:39.377Z,99.90
2018-12-04T16:52:07.507Z,99.90
2018-12-04T16:54:35.663Z,99.90
2018-12-04T16:57:04.899Z,99.90
2018-12-04T16:59:32.421Z,99.90
2018-12-04T17:02:00.506Z,99.90
2018-12-04T17:04:29.498Z,99.90
2018-12-04T17:06:58.071Z,99.90
2018-12-04T17:09:25.659Z,99.90
2018-12-04T17:11:53.861Z,99.90
2018-12-04T17:14:21.623Z,99.90
2018-12-04T17:16:49.151Z,99.90
2018-12-04T17:19:17.551Z,99.90
2018-12-04T17:21:45.634Z,99.90
2018-12-04T17:24:13.905Z,99.90
2018-12-04T17:26:41.522Z,99.90
2018-12-04T17:29:09.847Z,99.90
2018-12-04T17:31:37.925Z,99.90
2018-12-04T17:34:06.103Z,99.90
2018-12-04T17:36:33.594Z,99.90
2018-12-04T17:39:02.415Z,99.90
2018-12-04T17:41:29.898Z,99.90
2018-12-04T17:43:58.327Z,99.90
2018-12-04T17:46:26.485Z,99.90
2018-12-04T17:48:54.437Z,99.90
2018-12-04T17:51:22.438Z,99.90
2018-12-04T17:53:49.973Z,99.90
2018-12-04T17:56:17.605Z,99.90
2018-12-04T17:58:45.171Z,99.90
2018-12-04T18:01:13.414Z,99.90
2018-12-04T18:03:40.934Z,99.90
2018-12-04T18:06:08.590Z,99.90
2018-12-04T18:08:36.189Z,99.90
2018-12-04T18:11:03.826Z,99.90
2018-12-04T18:13:31.930Z,99.90
2018-12-04T18:15:59.450Z,99.90
2018-12-04T18:18:27.695Z,99.90
2018-12-04T18:20:55.970Z,99.90
2018-12-04T18:23:23.466Z,99.90
2018-12-04T18:25:51.554Z,99.90
2018-12-04T18:28:19.026Z,99.90
2018-12-04T18:30:47.263Z,99.90
2018-12-04T18:33:15.341Z,99.90
2018-12-04T18:35:44.141Z,99.90
2018-12-04T18:38:12.432Z,99.90
2018-12-04T18:40:39.997Z,99.90
2018-12-04T18:43:09.340Z,99.90
2018-12-04T18:45:37.485Z,99.90
2018-12-04T18:48:05.731Z,99.90
2018-12-04T18:50:35.245Z,99.90
2018-12-04T18:53:03.590Z,99.90
2018-12-04T18:55:31.113Z,99.90
2018-12-04T18:57:58.935Z,99.90
2018-12-04T19:00:27.246Z,99.90
2018-12-04T19:02:55.909Z,99.90
2018-12-04T19:05:23.970Z,99.90
2018-12-04T19:07:51.700Z,99.90
2018-12-04T19:10:19.363Z,99.90
2018-12-04T19:12:46.970Z,99.90
2018-12-04T19:15:16.745Z,99.90
2018-12-04T19:17:44.360Z,99.90
2018-12-04T19:20:12.846Z,99.90
2018-12-04T19:22:42.040Z,99.90
2018-12-04T19:25:10.369Z,99.90
2018-12-04T19:27:38.489Z,99.90
2018-12-04T19:30:11.253Z,99.90
2018-12-04T19:34:08.301Z,99.90
2018-12-04T19:36:36.410Z,99.90
2018-12-04T19:39:07.262Z,99.90
2018-12-04T19:41:34.745Z,99.90
2018-12-04T19:44:03.116Z,99.90
2018-12-04T19:46:31.503Z,99.90
2018-12-04T19:49:00.379Z,99.90
2018-12-04T19:51:28.754Z,99.90
2018-12-04T19:53:56.369Z,99.90
2018-12-04T19:56:24.216Z,99.90
2018-12-04T19:58:51.805Z,99.90
2018-12-04T20:01:20.340Z,99.90
2018-12-04T20:03:47.900Z,99.90
2018-12-04T20:06:16.125Z,99.90
2018-12-04T20:08:52.208Z,99.90
2018-12-04T20:11:20.531Z,99.90
2018-12-04T20:13:48.915Z,99.90
2018-12-04T20:16:17.303Z,99.90
2018-12-04T20:18:45.345Z,99.90
2018-12-04T20:21:13.445Z,99.90
2018-12-04T20:23:41.511Z,99.90
2018-12-04T20:26:09.163Z,99.90
2018-12-04T20:28:37.255Z,99.90
2018-12-04T20:31:05.421Z,99.90
2018-12-04T20:33:33.559Z,99.90
2018-12-04T20:36:01.132Z,99.90
2018-12-04T20:38:28.815Z,99.90
2018-12-04T20:40:57.789Z,99.90
2018-12-04T20:43:26.225Z,99.90
2018-12-04T20:45:53.803Z,99.90
2018-12-04T20:48:22.709Z,99.90
2018-12-04T20:50:50.964Z,99.90
2018-12-04T20:53:18.563Z,99.90
2018-12-04T20:55:46.055Z,99.90
2018-12-04T20:58:14.453Z,99.90
2018-12-04T21:00:41.925Z,99.90
2018-12-04T21:03:10.874Z,99.90
2018-12-04T21:05:38.415Z,99.90
2018-12-04T21:08:06.988Z,99.90
2018-12-04T21:10:36.098Z,99.90
2018-12-04T21:13:06.588Z,99.90
2018-12-04T21:15:35.014Z,99.90
2018-12-04T21:18:03.391Z,99.90
2018-12-04T21:20:30.914Z,99.90
2018-12-04T21:22:58.513Z,99.90
2018-12-04T21:25:26.870Z,99.90
2018-12-04T21:28:00.541Z,99.90
2018-12-04T21:30:33.866Z,99.90
2018-12-04T21:33:07.321Z,99.90
2018-12-04T21:35:41.930Z,99.90
2018-12-04T21:38:15.937Z,99.90
2018-12-04T21:40:49.221Z,99.90
2018-12-04T21:43:24.692Z,99.90
2018-12-04T21:45:58.529Z,99.90
2018-12-04T21:48:28.421Z,99.90
2018-12-04T21:50:56.373Z,99.90
2018-12-04T21:53:23.935Z,99.90
2018-12-04T21:55:51.602Z,99.90
2018-12-04T21:58:19.276Z,99.90
2018-12-04T22:00:47.527Z,99.90
2018-12-04T22:03:15.613Z,99.90
2018-12-04T22:05:43.412Z,99.90
2018-12-04T22:08:11.701Z,99.90
2018-12-04T22:10:39.297Z,99.90
2018-12-04T22:13:08.114Z,99.90
2018-12-04T22:15:37.261Z,99.90
2018-12-04T22:18:04.846Z,99.90
2018-12-04T22:20:33.407Z,99.90
2018-12-04T22:23:00.941Z,99.90
2018-12-04T22:25:29.175Z,99.90
2018-12-04T22:27:56.809Z,99.90
2018-12-04T22:30:24.414Z,99.90
2018-12-04T22:32:52.209Z,99.90
2018-12-04T22:35:20.789Z,99.90
2018-12-04T22:37:48.303Z,99.90
2018-12-04T22:40:15.812Z,99.90
2018-12-04T22:42:45.222Z,99.90
2018-12-04T22:45:19.815Z,99.90
2018-12-04T22:47:48.066Z,99.90
2018-12-04T22:50:16.456Z,99.90
2018-12-04T22:52:44.481Z,99.90
2018-12-04T22:55:12.135Z,99.90
2018-12-04T22:57:39.629Z,99.90
2018-12-04T23:00:13.484Z,99.90
2018-12-04T23:02:41.614Z,99.90
2018-12-04T23:05:09.814Z,99.90
2018-12-04T23:07:37.330Z,99.90
2018-12-04T23:10:06.270Z,99.90
2018-12-04T23:12:34.661Z,99.90
2018-12-04T23:15:02.411Z,99.90
2018-12-04T23:17:30.916Z,99.90
2018-12-04T23:19:58.415Z,99.90
2018-12-04T23:22:26.757Z,99.90
2018-12-04T23:24:54.237Z,99.90
2018-12-04T23:27:22.314Z,99.90
2018-12-04T23:29:49.787Z,99.90
2018-12-04T23:32:17.376Z,99.90
2018-12-04T23:34:45.405Z,99.90
2018-12-04T23:37:12.913Z,99.90
2018-12-04T23:39:40.396Z,99.90
2018-12-04T23:42:07.922Z,99.90
2018-12-04T23:44:35.391Z,99.90
2018-12-04T23:47:03.647Z,99.90
2018-12-04T23:49:31.638Z,99.90
2018-12-04T23:51:59.927Z,99.90
2018-12-04T23:54:27.917Z,99.90
2018-12-04T23:56:55.916Z,99.90
2018-12-04T23:59:23.538Z,99.90
